createdAt,value
2018-02-05T00:00:12.580Z,15.97
2018-02-05T00:02:41.177Z,15.03
2018-02-05T00:05:08.714Z,15.47
2018-02-05T00:07:36.244Z,16.53
2018-02-05T00:10:03.785Z,17.17
2018-02-05T00:12:31.320Z,17.53
2018-02-05T00:14:59.635Z,21.23
2018-02-05T00:17:27.797Z,15.77
2018-02-05T00:19:55.348Z,18.07
2018-02-05T00:22:22.876Z,18.97
2018-02-05T00:24:51.780Z,16.93
2018-02-05T00:27:20.095Z,19.93
2018-02-05T00:29:47.623Z,19.43
2018-02-05T00:32:15.468Z,19.87
2018-02-05T00:34:43.098Z,18.50
2018-02-05T00:37:10.660Z,19.03
2018-02-05T00:39:38.338Z,17.30
2018-02-05T00:42:05.956Z,21.50
2018-02-05T00:44:33.628Z,18.73
2018-02-05T00:47:01.567Z,19.20
2018-02-05T00:49:29.166Z,16.60
2018-02-05T00:51:56.790Z,19.77
2018-02-05T00:54:24.384Z,16.60
2018-02-05T00:56:52.809Z,17.90
2018-02-05T00:59:20.440Z,16.33
2018-02-05T01:01:48.009Z,18.03
2018-02-05T01:04:16.441Z,17.13
2018-02-05T01:06:44.096Z,16.57
2018-02-05T01:09:12.236Z,17.40
2018-02-05T01:11:40.624Z,17.50
2018-02-05T01:14:09.040Z,16.70
2018-02-05T01:16:37.465Z,16.63
2018-02-05T01:19:07.133Z,19.57
2018-02-05T01:21:34.757Z,17.83
2018-02-05T01:24:03.185Z,18.13
2018-02-05T01:26:30.962Z,16.20
2018-02-05T01:29:01.057Z,15.27
2018-02-05T01:31:28.680Z,18.83
2018-02-05T01:33:56.287Z,18.77
2018-02-05T01:36:23.913Z,17.00
2018-02-05T01:38:51.529Z,18.20
2018-02-05T01:41:21.809Z,16.27
2018-02-05T01:43:49.361Z,19.73
2018-02-05T01:46:17.388Z,16.90
2018-02-05T01:48:44.936Z,17.70
2018-02-05T01:51:12.492Z,20.10
2018-02-05T01:53:46.575Z,17.47
2018-02-05T01:56:14.146Z,17.23
2018-02-05T01:58:41.712Z,17.67
2018-02-05T02:01:09.678Z,16.00
2018-02-05T02:03:38.769Z,16.67
2018-02-05T02:06:06.312Z,16.73
2018-02-05T02:08:33.868Z,16.37
2018-02-05T02:11:01.952Z,17.50
2018-02-05T02:13:29.516Z,17.67
2018-02-05T02:15:57.091Z,18.33
2018-02-05T02:18:26.191Z,16.17
2018-02-05T02:20:53.735Z,15.07
2018-02-05T02:23:21.292Z,15.33
2018-02-05T02:25:48.881Z,17.77
2018-02-05T02:28:16.444Z,18.23
2018-02-05T02:30:43.995Z,18.67
2018-02-05T02:33:11.580Z,16.50
2018-02-05T02:35:39.894Z,17.03
2018-02-05T02:38:07.794Z,17.07
2018-02-05T02:40:35.347Z,15.00
2018-02-05T02:43:02.877Z,14.73
2018-02-05T02:45:30.436Z,15.07
2018-02-05T02:47:58.656Z,16.03
2018-02-05T02:50:26.531Z,15.57
2018-02-05T02:52:54.499Z,17.80
2018-02-05T02:55:22.063Z,17.07
2018-02-05T02:57:49.746Z,13.37
2018-02-05T03:00:18.635Z,15.97
2018-02-05T03:02:46.981Z,18.20
2018-02-05T03:05:14.533Z,15.80
2018-02-05T03:07:42.596Z,16.40
2018-02-05T03:10:10.166Z,17.83
2018-02-05T03:12:37.728Z,19.90
2018-02-05T03:15:05.281Z,19.43
2018-02-05T03:17:32.833Z,18.90
2018-02-05T03:20:00.800Z,21.50
2018-02-05T03:22:28.341Z,18.90
2018-02-05T03:24:56.230Z,20.70
2018-02-05T03:27:25.163Z,22.53
2018-02-05T03:29:53.261Z,18.30
2018-02-05T03:32:21.562Z,19.53
2018-02-05T03:34:49.612Z,21.90
2018-02-05T03:37:17.181Z,18.33
2018-02-05T03:39:44.740Z,18.93
2018-02-05T03:42:12.284Z,19.03
2018-02-05T03:44:40.595Z,18.03
2018-02-05T03:47:08.147Z,19.93
2018-02-05T03:49:35.683Z,17.40
2018-02-05T03:52:03.241Z,19.50
2018-02-05T03:54:31.241Z,16.67
2018-02-05T03:56:58.793Z,18.07
2018-02-05T03:59:26.326Z,17.03
2018-02-05T04:04:28.220Z,19.33
2018-02-05T04:07:01.743Z,20.90
2018-02-05T04:09:29.965Z,19.87
2018-02-05T04:11:58.268Z,19.63
2018-02-05T04:14:25.834Z,22.63
2018-02-05T04:16:53.947Z,23.03
2018-02-05T04:19:21.491Z,24.33
2018-02-05T04:21:49.042Z,23.80
2018-02-05T04:24:17.192Z,20.33
2018-02-05T04:26:44.733Z,21.63
2018-02-05T04:29:12.285Z,28.37
2018-02-05T04:31:39.843Z,21.70
2018-02-05T04:34:08.152Z,23.07
2018-02-05T04:36:36.406Z,22.83
2018-02-05T04:39:03.960Z,24.80
2018-02-05T04:41:32.265Z,27.03
2018-02-05T04:43:59.806Z,26.77
2018-02-05T04:46:28.108Z,27.40
2018-02-05T04:48:55.656Z,26.60
2018-02-05T04:51:23.204Z,25.53
2018-02-05T04:53:52.143Z,29.60
2018-02-05T04:56:19.690Z,31.67
2018-02-05T04:58:47.379Z,28.90
2018-02-05T05:03:49.239Z,26.50
2018-02-05T05:06:17.542Z,28.23
2018-02-05T05:08:45.088Z,30.70
2018-02-05T05:11:12.658Z,28.87
2018-02-05T05:13:40.195Z,29.00
2018-02-05T05:16:08.409Z,27.67
2018-02-05T05:18:35.973Z,26.13
2018-02-05T05:21:04.271Z,28.77
2018-02-05T05:23:31.807Z,29.53
2018-02-05T05:25:59.508Z,27.53
2018-02-05T05:28:27.057Z,27.20
2018-02-05T05:30:54.637Z,24.70
2018-02-05T05:33:22.449Z,24.90
2018-02-05T05:35:50.031Z,25.87
2018-02-05T05:38:19.240Z,28.30
2018-02-05T05:40:47.485Z,27.90
2018-02-05T05:43:15.684Z,30.53
2018-02-05T05:45:49.316Z,31.10
2018-02-05T05:48:17.011Z,27.50
2018-02-05T05:50:44.552Z,26.30
2018-02-05T05:53:12.100Z,26.47
2018-02-05T05:55:39.638Z,29.10
2018-02-05T05:58:07.634Z,27.47
2018-02-05T06:00:35.164Z,28.30
2018-02-05T06:03:02.941Z,26.53
2018-02-05T06:05:30.598Z,25.97
2018-02-05T06:07:58.588Z,28.10
2018-02-05T06:10:26.133Z,30.27
2018-02-05T06:12:53.740Z,27.30
2018-02-05T06:15:22.100Z,27.20
2018-02-05T06:17:49.704Z,30.63
2018-02-05T06:20:19.891Z,30.33
2018-02-05T06:22:47.593Z,32.87
2018-02-05T06:25:15.925Z,33.20
2018-02-05T06:27:43.518Z,30.00
2018-02-05T06:30:11.087Z,27.00
2018-02-05T06:32:38.652Z,28.47
2018-02-05T06:35:06.296Z,27.57
2018-02-05T06:37:35.404Z,31.77
2018-02-05T06:40:07.826Z,29.37
2018-02-05T06:42:35.454Z,26.50
2018-02-05T06:45:03.094Z,28.77
2018-02-05T06:47:31.252Z,30.30
2018-02-05T06:49:58.842Z,29.17
2018-02-05T06:52:38.421Z,28.23
2018-02-05T06:55:17.729Z,29.17
2018-02-05T06:57:46.886Z,37.17
2018-02-05T07:00:14.405Z,26.73
2018-02-05T07:02:42.700Z,29.57
2018-02-05T07:05:10.791Z,27.13
2018-02-05T07:07:38.374Z,26.27
2018-02-05T07:10:05.907Z,26.87
2018-02-05T07:12:33.434Z,31.00
2018-02-05T07:15:01.713Z,25.10
2018-02-05T07:17:30.117Z,25.73
2018-02-05T07:19:57.643Z,27.03
2018-02-05T07:22:26.668Z,25.10
2018-02-05T07:24:54.620Z,22.23
2018-02-05T07:27:23.065Z,21.37
2018-02-05T07:29:50.624Z,30.50
2018-02-05T07:32:18.240Z,25.03
2018-02-05T07:34:45.760Z,24.03
2018-02-05T07:37:14.087Z,20.90
2018-02-05T07:39:41.603Z,24.47
2018-02-05T07:42:09.119Z,22.93
2018-02-05T07:44:36.653Z,23.77
2018-02-05T07:47:04.591Z,27.90
2018-02-05T07:49:32.958Z,23.17
2018-02-05T07:52:01.776Z,25.07
2018-02-05T07:54:29.331Z,26.70
2018-02-05T07:56:56.860Z,21.17
2018-02-05T07:59:25.173Z,25.97
2018-02-05T08:01:52.721Z,21.20
2018-02-05T08:04:20.288Z,21.77
2018-02-05T08:06:47.847Z,21.93
2018-02-05T08:09:16.084Z,21.23
2018-02-05T08:11:44.593Z,26.37
2018-02-05T08:14:12.111Z,22.77
2018-02-05T08:16:39.638Z,18.83
2018-02-05T08:19:07.176Z,17.87
2018-02-05T08:21:34.691Z,21.57
2018-02-05T08:24:03.002Z,15.97
2018-02-05T08:26:30.530Z,17.13
2018-02-05T08:28:58.842Z,16.40
2018-02-05T08:31:26.913Z,16.47
2018-02-05T08:33:55.139Z,18.10
2018-02-05T08:36:23.084Z,16.23
2018-02-05T08:38:50.611Z,20.57
2018-02-05T08:41:18.128Z,19.50
2018-02-05T08:43:46.447Z,19.03
2018-02-05T08:46:13.968Z,17.40
2018-02-05T08:48:42.912Z,17.40
2018-02-05T08:51:10.432Z,14.50
2018-02-05T08:53:38.293Z,17.07
2018-02-05T08:56:06.593Z,16.07
2018-02-05T08:58:34.147Z,17.27
2018-02-05T09:01:01.711Z,17.03
2018-02-05T09:03:29.778Z,16.37
2018-02-05T09:05:57.716Z,15.60
2018-02-05T09:08:26.416Z,17.47
2018-02-05T09:10:55.005Z,16.73
2018-02-05T09:13:22.524Z,16.63
2018-02-05T09:15:50.036Z,15.53
2018-02-05T09:18:17.559Z,15.03
2018-02-05T09:20:45.844Z,13.90
2018-02-05T09:23:13.361Z,16.17
2018-02-05T09:25:40.895Z,13.53
2018-02-05T09:28:08.616Z,16.90
2018-02-05T09:30:37.443Z,20.13
2018-02-05T09:33:04.969Z,18.90
2018-02-05T09:35:32.493Z,17.07
2018-02-05T09:38:00.352Z,15.37
2018-02-05T09:40:27.876Z,14.90
2018-02-05T09:42:55.396Z,16.43
2018-02-05T09:45:23.686Z,17.67
2018-02-05T09:47:51.755Z,16.73
2018-02-05T09:50:19.476Z,16.23
2018-02-05T09:52:46.992Z,19.17
2018-02-05T09:55:14.511Z,13.53
2018-02-05T09:57:42.799Z,16.87
2018-02-05T10:00:11.668Z,15.30
2018-02-05T10:02:39.599Z,16.00
2018-02-05T10:05:07.424Z,14.57
2018-02-05T10:07:35.720Z,14.37
2018-02-05T10:10:03.230Z,13.17
2018-02-05T10:12:30.748Z,13.30
2018-02-05T10:14:58.677Z,13.37
2018-02-05T10:17:26.972Z,19.03
2018-02-05T10:19:54.545Z,17.30
2018-02-05T10:22:22.076Z,20.00
2018-02-05T10:24:51.050Z,12.80
2018-02-05T10:27:19.337Z,12.23
2018-02-05T10:29:47.629Z,11.17
2018-02-05T10:32:15.147Z,13.93
2018-02-05T10:34:46.034Z,8.70
2018-02-05T10:37:14.118Z,11.57
2018-02-05T10:39:41.645Z,12.23
2018-02-05T10:42:09.197Z,15.20
2018-02-05T10:44:37.477Z,14.80
2018-02-05T10:47:05.781Z,11.07
2018-02-05T10:49:33.657Z,9.50
2018-02-05T10:52:01.251Z,11.27
2018-02-05T10:54:28.875Z,13.33
2018-02-05T10:56:56.391Z,10.40
2018-02-05T10:59:24.664Z,9.17
2018-02-05T11:01:53.084Z,19.57
2018-02-05T11:04:20.597Z,11.10
2018-02-05T11:06:48.883Z,10.57
2018-02-05T11:09:17.161Z,9.83
2018-02-05T11:11:45.435Z,9.63
2018-02-05T11:14:13.729Z,10.07
2018-02-05T11:16:41.236Z,9.37
2018-02-05T11:19:08.780Z,9.90
2018-02-05T11:21:36.293Z,8.20
2018-02-05T11:24:04.561Z,8.87
2018-02-05T11:26:32.852Z,10.77
2018-02-05T11:29:00.509Z,6.33
2018-02-05T11:31:28.185Z,6.97
2018-02-05T11:33:55.734Z,6.90
2018-02-05T11:36:23.247Z,7.20
2018-02-05T11:38:50.776Z,5.23
2018-02-05T11:41:18.280Z,7.77
2018-02-05T11:43:46.604Z,5.40
2018-02-05T11:46:14.115Z,6.53
2018-02-05T11:48:49.159Z,5.10
2018-02-05T11:51:17.779Z,5.40
2018-02-05T11:53:45.295Z,6.67
2018-02-05T11:56:13.568Z,7.00
2018-02-05T11:58:41.850Z,5.37
2018-02-05T12:01:10.135Z,5.27
2018-02-05T12:03:37.656Z,5.20
2018-02-05T12:06:05.600Z,7.27
2018-02-05T12:08:33.302Z,6.33
2018-02-05T12:11:01.574Z,5.97
2018-02-05T12:13:29.872Z,6.53
2018-02-05T12:15:57.388Z,6.77
2018-02-05T12:18:24.910Z,4.93
2018-02-05T12:20:53.036Z,6.40
2018-02-05T12:23:21.320Z,5.50
2018-02-05T12:25:49.600Z,5.47
2018-02-05T12:28:17.876Z,4.53
2018-02-05T12:30:46.291Z,5.30
2018-02-05T12:33:14.529Z,4.80
2018-02-05T12:35:43.370Z,4.80
2018-02-05T12:38:11.425Z,4.60
2018-02-05T12:40:39.143Z,4.43
2018-02-05T12:43:07.477Z,4.37
2018-02-05T12:45:35.011Z,4.97
2018-02-05T12:48:02.516Z,4.33
2018-02-05T12:50:30.049Z,4.83
2018-02-05T12:52:57.560Z,3.60
2018-02-05T12:55:25.076Z,4.20
2018-02-05T12:57:55.063Z,4.23
2018-02-05T13:03:33.320Z,4.23
2018-02-05T13:08:32.886Z,4.03
2018-02-05T13:11:01.276Z,4.03
2018-02-05T13:13:28.791Z,4.10
2018-02-05T13:15:56.315Z,4.27
2018-02-05T13:18:23.828Z,4.17
2018-02-05T13:20:52.120Z,4.37
2018-02-05T13:23:22.405Z,3.77
2018-02-05T13:25:50.604Z,5.23
2018-02-05T13:28:18.904Z,3.97
2018-02-05T13:30:46.412Z,5.83
2018-02-05T13:33:16.698Z,5.83
2018-02-05T13:35:44.216Z,4.03
2018-02-05T13:38:12.491Z,4.00
2018-02-05T13:40:41.103Z,3.90
2018-02-05T13:43:08.735Z,3.97
2018-02-05T13:45:37.016Z,4.03
2018-02-05T13:48:05.932Z,3.93
2018-02-05T13:50:33.453Z,6.67
2018-02-05T13:53:01.745Z,7.77
2018-02-05T13:55:31.108Z,10.83
2018-02-05T13:57:58.623Z,5.73
2018-02-05T14:00:26.155Z,4.37
2018-02-05T14:02:54.436Z,5.70
2018-02-05T14:05:22.972Z,4.67
2018-02-05T14:07:50.493Z,5.00
2018-02-05T14:10:18.009Z,4.53
2018-02-05T14:12:48.084Z,4.80
2018-02-05T14:15:15.600Z,5.13
2018-02-05T14:17:44.460Z,6.93
2018-02-05T14:20:14.422Z,3.73
2018-02-05T14:22:41.968Z,3.40
2018-02-05T14:25:10.663Z,5.07
2018-02-05T14:27:38.183Z,4.40
2018-02-05T14:30:05.732Z,4.03
2018-02-05T14:32:33.236Z,4.03
2018-02-05T14:35:00.752Z,3.40
2018-02-05T14:37:29.187Z,4.43
2018-02-05T14:39:56.701Z,3.93
2018-02-05T14:42:24.215Z,4.03
2018-02-05T14:44:52.143Z,3.57
2018-02-05T14:47:20.417Z,3.50
2018-02-05T14:49:49.035Z,3.57
2018-02-05T14:52:16.962Z,4.30
2018-02-05T14:54:45.244Z,3.87
2018-02-05T14:57:13.532Z,3.23
2018-02-05T14:59:41.048Z,3.73
2018-02-05T15:02:08.594Z,3.17
2018-02-05T15:04:36.881Z,4.83
2018-02-05T15:07:04.398Z,3.27
2018-02-05T15:09:32.482Z,3.33
2018-02-05T15:12:00.096Z,4.13
2018-02-05T15:14:28.372Z,3.40
2018-02-05T15:16:57.209Z,4.50
2018-02-05T15:19:24.940Z,4.03
2018-02-05T15:21:52.883Z,4.47
2018-02-05T15:24:21.212Z,4.63
2018-02-05T15:26:48.699Z,5.07
2018-02-05T15:29:16.211Z,4.03
2018-02-05T15:31:43.760Z,3.93
2018-02-05T15:34:11.281Z,5.50
2018-02-05T15:36:38.786Z,4.67
2018-02-05T15:39:06.310Z,4.03
2018-02-05T15:41:34.580Z,4.87
2018-02-05T15:44:03.291Z,6.60
2018-02-05T15:46:30.807Z,4.60
2018-02-05T15:48:58.749Z,4.83
2018-02-05T15:51:26.261Z,4.97
2018-02-05T15:53:54.539Z,5.70
2018-02-05T15:56:22.826Z,5.67
2018-02-05T15:58:50.355Z,5.57
2018-02-05T16:01:18.636Z,4.30
2018-02-05T16:03:46.914Z,6.63
2018-02-05T16:06:15.199Z,7.53
2018-02-05T16:08:44.469Z,5.53
2018-02-05T16:11:11.996Z,5.93
2018-02-05T16:13:39.544Z,6.83
2018-02-05T16:16:07.043Z,6.30
2018-02-05T16:18:34.579Z,7.23
2018-02-05T16:21:02.611Z,8.57
2018-02-05T16:23:30.134Z,9.40
2018-02-05T16:25:57.672Z,6.00
2018-02-05T16:28:25.188Z,8.73
2018-02-05T16:30:53.232Z,5.73
2018-02-05T16:33:21.517Z,7.60
2018-02-05T16:35:50.086Z,13.70
2018-02-05T16:38:19.052Z,9.03
2018-02-05T16:40:46.579Z,7.73
2018-02-05T16:43:14.110Z,10.27
2018-02-05T16:45:42.379Z,8.13
2018-02-05T16:48:11.606Z,8.30
2018-02-05T16:50:39.320Z,6.90
2018-02-05T16:53:06.836Z,8.63
2018-02-05T16:55:34.340Z,9.40
2018-02-05T16:58:01.859Z,7.83
2018-02-05T17:00:29.376Z,7.97
2018-02-05T17:02:59.012Z,8.67
2018-02-05T17:05:26.979Z,8.20
2018-02-05T17:07:54.872Z,8.40
2018-02-05T17:10:22.398Z,9.90
2018-02-05T17:12:50.629Z,10.47
2018-02-05T17:15:20.264Z,9.17
2018-02-05T17:17:47.804Z,10.87
2018-02-05T17:20:16.276Z,8.40
2018-02-05T17:22:43.905Z,9.17
2018-02-05T17:25:11.785Z,11.00
2018-02-05T17:27:39.306Z,11.43
2018-02-05T17:30:07.136Z,13.43
2018-02-05T17:32:35.421Z,9.93
2018-02-05T17:35:03.708Z,11.10
2018-02-05T17:37:31.232Z,10.93
2018-02-05T17:39:58.748Z,9.20
2018-02-05T17:42:26.263Z,10.20
2018-02-05T17:44:54.559Z,10.23
2018-02-05T17:47:22.076Z,9.60
2018-02-05T17:49:49.592Z,11.67
2018-02-05T17:52:17.113Z,9.03
2018-02-05T17:54:46.346Z,9.83
2018-02-05T17:57:13.880Z,9.57
2018-02-05T17:59:45.000Z,10.10
2018-02-05T18:02:13.293Z,10.27
2018-02-05T18:04:41.580Z,12.53
2018-02-05T18:07:09.308Z,12.17
2018-02-05T18:09:36.820Z,7.80
2018-02-05T18:12:06.787Z,9.30
2018-02-05T18:14:34.764Z,11.50
2018-02-05T18:17:03.084Z,10.50
2018-02-05T18:19:30.642Z,11.07
2018-02-05T18:21:58.199Z,11.10
2018-02-05T18:24:25.762Z,10.47
2018-02-05T18:26:54.003Z,12.17
2018-02-05T18:29:22.759Z,10.70
2018-02-05T18:31:50.739Z,9.43
2018-02-05T18:34:19.780Z,10.53
2018-02-05T18:36:47.305Z,11.10
2018-02-05T18:39:15.610Z,13.37
2018-02-05T18:41:43.125Z,10.90
2018-02-05T18:44:11.420Z,11.80
2018-02-05T18:46:39.710Z,13.43
2018-02-05T18:49:07.232Z,11.53
2018-02-05T18:51:35.521Z,13.03
2018-02-05T18:54:03.811Z,11.30
2018-02-05T18:56:43.414Z,14.30
2018-02-05T18:59:12.465Z,12.87
2018-02-05T19:01:39.991Z,14.27
2018-02-05T19:04:08.282Z,11.50
2018-02-05T19:06:35.860Z,11.03
2018-02-05T19:09:03.404Z,13.00
2018-02-05T19:11:30.945Z,12.07
2018-02-05T19:13:59.227Z,11.63
2018-02-05T19:16:26.811Z,12.37
2018-02-05T19:18:55.955Z,12.70
2018-02-05T19:21:24.259Z,13.17
2018-02-05T19:23:51.786Z,15.47
2018-02-05T19:26:19.589Z,14.80
2018-02-05T19:28:47.310Z,14.47
2018-02-05T19:31:16.337Z,12.77
2018-02-05T19:33:45.730Z,11.83
2018-02-05T19:36:14.019Z,13.40
2018-02-05T19:38:41.592Z,12.50
2018-02-05T19:41:09.120Z,13.40
2018-02-05T19:43:37.604Z,14.17
2018-02-05T19:46:05.905Z,14.43
2018-02-05T19:48:33.467Z,18.30
2018-02-05T19:51:02.399Z,15.33
2018-02-05T19:53:29.920Z,16.07
2018-02-05T19:55:57.486Z,15.60
2018-02-05T19:58:25.036Z,16.07
2018-02-05T20:00:53.092Z,15.13
2018-02-05T20:03:20.672Z,17.43
2018-02-05T20:05:48.605Z,14.53
2018-02-05T20:08:16.912Z,17.70
2018-02-05T20:10:46.840Z,17.40
2018-02-05T20:13:14.582Z,16.47
2018-02-05T20:15:42.476Z,17.10
2018-02-05T20:18:10.015Z,17.33
2018-02-05T20:20:37.570Z,16.90
2018-02-05T20:23:05.086Z,18.20
2018-02-05T20:25:34.084Z,17.73
2018-02-05T20:28:03.024Z,17.10
2018-02-05T20:30:30.541Z,21.00
2018-02-05T20:32:59.639Z,21.23
2018-02-05T20:35:28.038Z,19.07
2018-02-05T20:37:55.553Z,20.60
2018-02-05T20:40:23.881Z,18.23
2018-02-05T20:42:51.432Z,18.93
2018-02-05T20:45:18.989Z,22.50
2018-02-05T20:47:46.550Z,19.27
2018-02-05T20:50:14.071Z,19.70
2018-02-05T20:52:42.383Z,17.27
2018-02-05T20:55:09.904Z,20.10
2018-02-05T20:57:38.191Z,20.40
2018-02-05T21:00:06.482Z,23.63
2018-02-05T21:02:34.011Z,23.50
2018-02-05T21:05:02.736Z,19.50
2018-02-05T21:07:30.259Z,21.57
2018-02-05T21:09:59.060Z,21.90
2018-02-05T21:12:28.350Z,19.03
2018-02-05T21:14:56.664Z,20.30
2018-02-05T21:17:24.295Z,19.50
2018-02-05T21:19:52.679Z,21.03
2018-02-05T21:22:20.200Z,21.30
2018-02-05T21:24:47.816Z,25.80
2018-02-05T21:27:15.374Z,22.33
2018-02-05T21:29:42.894Z,20.70
2018-02-05T21:32:11.696Z,20.63
2018-02-05T21:34:39.983Z,22.53
2018-02-05T21:37:08.212Z,22.33
2018-02-05T21:39:35.928Z,21.37
2018-02-05T21:42:04.544Z,20.07
2018-02-05T21:44:38.958Z,17.43
2018-02-05T21:47:06.452Z,20.37
2018-02-05T21:49:34.936Z,21.30
2018-02-05T21:52:03.241Z,22.53
2018-02-05T21:54:31.905Z,20.43
2018-02-05T21:57:00.827Z,20.70
2018-02-05T21:59:28.384Z,22.80
2018-02-05T22:01:56.475Z,20.23
2018-02-05T22:04:24.180Z,18.93
2018-02-05T22:06:52.469Z,19.77
2018-02-05T22:09:19.988Z,19.40
2018-02-05T22:11:47.511Z,19.60
2018-02-05T22:14:15.026Z,24.33
2018-02-05T22:16:44.156Z,20.67
2018-02-05T22:19:11.674Z,19.43
2018-02-05T22:21:40.592Z,21.33
2018-02-05T22:24:08.457Z,23.13
2018-02-05T22:26:36.702Z,23.27
2018-02-05T22:29:05.012Z,19.83
2018-02-05T22:31:33.012Z,20.17
2018-02-05T22:34:00.545Z,19.13
2018-02-05T22:36:28.432Z,21.77
2018-02-05T22:38:55.965Z,22.40
2018-02-05T22:41:23.496Z,22.53
2018-02-05T22:43:51.804Z,19.77
2018-02-05T22:46:19.776Z,20.07
2018-02-05T22:48:47.424Z,22.03
2018-02-05T22:51:14.946Z,21.17
2018-02-05T22:53:42.555Z,20.10
2018-02-05T22:56:10.356Z,19.77
2018-02-05T22:58:40.539Z,21.20
2018-02-05T23:01:08.104Z,20.53
2018-02-05T23:03:35.621Z,23.67
2018-02-05T23:06:04.974Z,22.27
2018-02-05T23:08:32.490Z,19.43
2018-02-05T23:11:03.356Z,21.27
2018-02-05T23:13:30.885Z,19.57
2018-02-05T23:15:59.168Z,23.43
2018-02-05T23:18:26.691Z,23.60
2018-02-05T23:20:54.747Z,25.17
2018-02-05T23:23:22.284Z,24.10
2018-02-05T23:25:49.810Z,23.10
2018-02-05T23:28:18.201Z,21.00
2018-02-05T23:30:46.165Z,18.73
2018-02-05T23:33:13.693Z,20.43
2018-02-05T23:35:42.001Z,19.87
2018-02-05T23:38:09.734Z,20.50
2018-02-05T23:40:38.732Z,20.67
2018-02-05T23:43:07.200Z,21.03
2018-02-05T23:45:36.659Z,20.87
2018-02-05T23:48:04.195Z,20.90
2018-02-05T23:50:31.711Z,19.97
2018-02-05T23:52:59.636Z,23.07
2018-02-05T23:55:27.854Z,21.43
2018-02-05T23:57:55.771Z,21.50
